sensor_id;sensor_type;location;lat;lon;timestamp;pressure;altitude;pressure_sealevel;temperature;humidity
54144;BME280;40050;47.324;18.792;2023-02-28T00:00:32;1014.71;;;3.65;51.13
54144;BME280;40050;47.324;18.792;2023-02-28T00:02:33;1014.68;;;3.63;51.35
54144;BME280;40050;47.324;18.792;2023-02-28T00:04:34;1014.76;;;3.69;51.29
54144;BME280;40050;47.324;18.792;2023-02-28T00:06:35;1014.77;;;3.72;51.20
54144;BME280;40050;47.324;18.792;2023-02-28T00:08:36;1014.68;;;3.65;50.99
54144;BME280;40050;47.324;18.792;2023-02-28T00:10:37;1014.78;;;3.73;50.93
54144;BME280;40050;47.324;18.792;2023-02-28T00:12:38;1014.85;;;3.77;50.86
54144;BME280;40050;47.324;18.792;2023-02-28T00:14:39;1014.83;;;3.75;50.86
54144;BME280;40050;47.324;18.792;2023-02-28T00:16:40;1014.87;;;3.78;50.53
54144;BME280;40050;47.324;18.792;2023-02-28T00:18:41;1014.84;;;3.75;50.10
54144;BME280;40050;47.324;18.792;2023-02-28T00:20:42;1014.91;;;3.77;50.13
54144;BME280;40050;47.324;18.792;2023-02-28T00:22:44;1014.88;;;3.75;50.49
54144;BME280;40050;47.324;18.792;2023-02-28T00:24:45;1014.98;;;3.77;50.66
54144;BME280;40050;47.324;18.792;2023-02-28T00:26:47;1014.99;;;3.77;50.18
54144;BME280;40050;47.324;18.792;2023-02-28T00:28:48;1015.03;;;3.74;49.96
54144;BME280;40050;47.324;18.792;2023-02-28T00:30:49;1014.97;;;3.67;49.99
54144;BME280;40050;47.324;18.792;2023-02-28T00:32:50;1015.03;;;3.67;49.97
54144;BME280;40050;47.324;18.792;2023-02-28T00:34:51;1015.05;;;3.66;50.01
54144;BME280;40050;47.324;18.792;2023-02-28T00:36:51;1015.09;;;3.63;50.13
54144;BME280;40050;47.324;18.792;2023-02-28T00:38:52;1015.12;;;3.57;50.45
54144;BME280;40050;47.324;18.792;2023-02-28T00:40:53;1015.12;;;3.55;50.35
54144;BME280;40050;47.324;18.792;2023-02-28T00:42:54;1015.10;;;3.51;50.37
54144;BME280;40050;47.324;18.792;2023-02-28T00:44:55;1015.11;;;3.47;50.64
54144;BME280;40050;47.324;18.792;2023-02-28T00:46:56;1015.11;;;3.46;50.41
54144;BME280;40050;47.324;18.792;2023-02-28T00:48:57;1015.10;;;3.40;50.43
54144;BME280;40050;47.324;18.792;2023-02-28T00:50:58;1015.12;;;3.41;50.56
54144;BME280;40050;47.324;18.792;2023-02-28T00:52:59;1015.03;;;3.35;50.40
54144;BME280;40050;47.324;18.792;2023-02-28T00:55:00;1015.12;;;3.41;50.41
54144;BME280;40050;47.324;18.792;2023-02-28T00:57:01;1015.17;;;3.46;50.56
54144;BME280;40050;47.324;18.792;2023-02-28T00:59:02;1015.18;;;3.49;50.51
54144;BME280;40050;47.324;18.792;2023-02-28T01:01:03;1015.12;;;3.50;50.28
54144;BME280;40050;47.324;18.792;2023-02-28T01:03:04;1015.13;;;3.52;50.31
54144;BME280;40050;47.324;18.792;2023-02-28T01:05:05;1015.09;;;3.53;50.47
54144;BME280;40050;47.324;18.792;2023-02-28T01:07:06;1015.12;;;3.55;50.75
54144;BME280;40050;47.324;18.792;2023-02-28T01:09:07;1015.08;;;3.56;51.01
54144;BME280;40050;47.324;18.792;2023-02-28T01:11:09;1015.08;;;3.59;51.82
54144;BME280;40050;47.324;18.792;2023-02-28T01:13:11;1015.08;;;3.65;52.06
54144;BME280;40050;47.324;18.792;2023-02-28T01:15:12;1015.11;;;3.70;52.89
54144;BME280;40050;47.324;18.792;2023-02-28T01:17:13;1015.07;;;3.71;53.29
54144;BME280;40050;47.324;18.792;2023-02-28T01:19:14;1015.14;;;3.75;52.88
54144;BME280;40050;47.324;18.792;2023-02-28T01:21:16;1015.09;;;3.73;52.62
54144;BME280;40050;47.324;18.792;2023-02-28T01:23:17;1015.12;;;3.77;52.67
54144;BME280;40050;47.324;18.792;2023-02-28T01:25:18;1015.09;;;3.74;53.08
54144;BME280;40050;47.324;18.792;2023-02-28T01:27:19;1015.02;;;3.72;53.52
54144;BME280;40050;47.324;18.792;2023-02-28T01:29:20;1015.10;;;3.77;53.77
54144;BME280;40050;47.324;18.792;2023-02-28T01:31:21;1015.05;;;3.78;54.06
54144;BME280;40050;47.324;18.792;2023-02-28T01:33:23;1015.03;;;3.82;54.20
54144;BME280;40050;47.324;18.792;2023-02-28T01:35:24;1015.01;;;3.81;54.31
54144;BME280;40050;47.324;18.792;2023-02-28T01:37:24;1015.06;;;3.83;54.76
54144;BME280;40050;47.324;18.792;2023-02-28T01:39:25;1015.06;;;3.81;54.89
54144;BME280;40050;47.324;18.792;2023-02-28T01:41:28;1015.04;;;3.77;55.28
54144;BME280;40050;47.324;18.792;2023-02-28T01:43:30;1015.14;;;3.81;55.43
54144;BME280;40050;47.324;18.792;2023-02-28T01:45:31;1015.11;;;3.79;55.34
54144;BME280;40050;47.324;18.792;2023-02-28T01:47:36;1015.07;;;3.75;55.39
54144;BME280;40050;47.324;18.792;2023-02-28T01:49:39;1015.11;;;3.77;55.30
54144;BME280;40050;47.324;18.792;2023-02-28T01:53:55;1015.09;;;3.75;55.21
54144;BME280;40050;47.324;18.792;2023-02-28T01:55:57;1015.08;;;3.75;55.41
54144;BME280;40050;47.324;18.792;2023-02-28T01:57:58;1014.98;;;3.72;55.21
54144;BME280;40050;47.324;18.792;2023-02-28T02:00:01;1014.97;;;3.74;55.01
54144;BME280;40050;47.324;18.792;2023-02-28T02:02:02;1015.01;;;3.80;54.82
54144;BME280;40050;47.324;18.792;2023-02-28T02:04:03;1014.98;;;3.81;55.07
54144;BME280;40050;47.324;18.792;2023-02-28T02:06:04;1014.95;;;3.82;54.55
54144;BME280;40050;47.324;18.792;2023-02-28T02:08:28;1015.00;;;3.84;54.43
54144;BME280;40050;47.324;18.792;2023-02-28T02:10:20;1014.97;;;3.85;54.03
54144;BME280;40050;47.324;18.792;2023-02-28T02:14:47;1014.95;;;3.86;53.89
54144;BME280;40050;47.324;18.792;2023-02-28T02:21:40;1015.02;;;3.86;54.11
54144;BME280;40050;47.324;18.792;2023-02-28T02:24:03;1015.06;;;3.87;54.31
54144;BME280;40050;47.324;18.792;2023-02-28T02:26:20;1015.02;;;3.89;54.33
54144;BME280;40050;47.324;18.792;2023-02-28T02:33:24;1014.88;;;3.98;53.90
54144;BME280;40050;47.324;18.792;2023-02-28T02:35:40;1015.00;;;4.08;54.26
54144;BME280;40050;47.324;18.792;2023-02-28T02:37:52;1015.00;;;4.11;54.38
54144;BME280;40050;47.324;18.792;2023-02-28T02:42:14;1015.00;;;4.05;53.43
54144;BME280;40050;47.324;18.792;2023-02-28T02:46:30;1014.94;;;4.01;54.00
54144;BME280;40050;47.324;18.792;2023-02-28T02:48:33;1014.97;;;4.03;54.01
54144;BME280;40050;47.324;18.792;2023-02-28T02:50:37;1014.99;;;4.00;53.80
54144;BME280;40050;47.324;18.792;2023-02-28T02:52:43;1015.03;;;4.03;53.70
54144;BME280;40050;47.324;18.792;2023-02-28T02:54:45;1015.06;;;4.04;53.68
54144;BME280;40050;47.324;18.792;2023-02-28T02:56:48;1015.01;;;4.00;53.77
54144;BME280;40050;47.324;18.792;2023-02-28T02:58:50;1015.05;;;3.99;53.94
54144;BME280;40050;47.324;18.792;2023-02-28T03:00:53;1015.04;;;4.00;54.24
54144;BME280;40050;47.324;18.792;2023-02-28T03:02:56;1015.04;;;3.97;54.53
54144;BME280;40050;47.324;18.792;2023-02-28T03:04:58;1015.02;;;3.98;55.00
54144;BME280;40050;47.324;18.792;2023-02-28T03:07:00;1015.07;;;3.99;54.81
54144;BME280;40050;47.324;18.792;2023-02-28T03:09:01;1015.08;;;4.01;54.64
54144;BME280;40050;47.324;18.792;2023-02-28T03:11:06;1015.06;;;4.00;54.59
54144;BME280;40050;47.324;18.792;2023-02-28T03:13:29;1015.01;;;4.02;54.61
54144;BME280;40050;47.324;18.792;2023-02-28T03:15:24;1015.05;;;4.03;54.61
54144;BME280;40050;47.324;18.792;2023-02-28T03:17:30;1015.07;;;4.08;54.62
54144;BME280;40050;47.324;18.792;2023-02-28T03:24:25;1015.06;;;3.99;55.06
54144;BME280;40050;47.324;18.792;2023-02-28T03:26:30;1015.08;;;3.98;55.24
54144;BME280;40050;47.324;18.792;2023-02-28T03:28:40;1014.91;;;3.90;55.21
54144;BME280;40050;47.324;18.792;2023-02-28T03:30:45;1015.08;;;4.06;55.19
54144;BME280;40050;47.324;18.792;2023-02-28T03:33:08;1015.05;;;4.08;55.25
54144;BME280;40050;47.324;18.792;2023-02-28T03:35:06;1015.03;;;4.03;55.27
54144;BME280;40050;47.324;18.792;2023-02-28T03:37:12;1015.01;;;3.99;55.31
54144;BME280;40050;47.324;18.792;2023-02-28T03:39:16;1014.98;;;4.01;55.27
54144;BME280;40050;47.324;18.792;2023-02-28T03:41:19;1015.04;;;4.08;55.31
54144;BME280;40050;47.324;18.792;2023-02-28T03:43:22;1014.97;;;4.05;55.35
54144;BME280;40050;47.324;18.792;2023-02-28T03:45:26;1015.00;;;4.09;55.38
54144;BME280;40050;47.324;18.792;2023-02-28T03:49:49;1015.02;;;4.10;56.01
54144;BME280;40050;47.324;18.792;2023-02-28T03:51:53;1015.00;;;4.09;55.82
54144;BME280;40050;47.324;18.792;2023-02-28T03:53:57;1015.00;;;4.10;55.81
54144;BME280;40050;47.324;18.792;2023-02-28T03:56:05;1014.61;;;3.86;55.59
54144;BME280;40050;47.324;18.792;2023-02-28T03:58:21;1015.00;;;4.09;55.54
54144;BME280;40050;47.324;18.792;2023-02-28T04:00:27;1015.02;;;4.12;55.59
54144;BME280;40050;47.324;18.792;2023-02-28T04:02:29;1015.03;;;4.13;55.43
54144;BME280;40050;47.324;18.792;2023-02-28T04:04:30;1014.99;;;4.14;55.34
54144;BME280;40050;47.324;18.792;2023-02-28T04:06:32;1014.99;;;4.13;55.36
54144;BME280;40050;47.324;18.792;2023-02-28T04:08:33;1014.98;;;4.12;55.20
54144;BME280;40050;47.324;18.792;2023-02-28T04:10:34;1014.96;;;4.11;55.35
54144;BME280;40050;47.324;18.792;2023-02-28T04:12:35;1014.99;;;4.19;55.44
54144;BME280;40050;47.324;18.792;2023-02-28T04:14:36;1014.65;;;3.97;55.58
54144;BME280;40050;47.324;18.792;2023-02-28T04:16:38;1015.05;;;4.20;55.66
54144;BME280;40050;47.324;18.792;2023-02-28T04:18:39;1015.00;;;4.16;55.68
54144;BME280;40050;47.324;18.792;2023-02-28T04:20:40;1015.05;;;4.18;55.79
54144;BME280;40050;47.324;18.792;2023-02-28T04:22:41;1015.02;;;4.15;55.88
54144;BME280;40050;47.324;18.792;2023-02-28T04:24:42;1014.98;;;4.13;55.98
54144;BME280;40050;47.324;18.792;2023-02-28T04:26:44;1014.96;;;4.13;56.00
54144;BME280;40050;47.324;18.792;2023-02-28T04:28:46;1015.00;;;4.13;56.04
54144;BME280;40050;47.324;18.792;2023-02-28T04:30:47;1014.96;;;4.10;56.11
54144;BME280;40050;47.324;18.792;2023-02-28T04:32:47;1014.96;;;4.08;56.00
54144;BME280;40050;47.324;18.792;2023-02-28T04:34:48;1014.98;;;4.09;55.80
54144;BME280;40050;47.324;18.792;2023-02-28T04:36:49;1014.95;;;4.09;55.76
54144;BME280;40050;47.324;18.792;2023-02-28T04:38:51;1014.96;;;4.12;55.75
54144;BME280;40050;47.324;18.792;2023-02-28T04:40:52;1014.97;;;4.14;55.74
54144;BME280;40050;47.324;18.792;2023-02-28T04:42:52;1014.96;;;4.14;55.52
54144;BME280;40050;47.324;18.792;2023-02-28T04:44:53;1014.96;;;4.12;55.39
54144;BME280;40050;47.324;18.792;2023-02-28T04:46:54;1014.95;;;4.12;55.36
54144;BME280;40050;47.324;18.792;2023-02-28T04:48:55;1014.99;;;4.14;55.02
54144;BME280;40050;47.324;18.792;2023-02-28T04:51:00;1015.01;;;4.15;54.82
54144;BME280;40050;47.324;18.792;2023-02-28T04:53:01;1015.00;;;4.14;54.74
54144;BME280;40050;47.324;18.792;2023-02-28T04:55:02;1015.12;;;4.15;54.90
54144;BME280;40050;47.324;18.792;2023-02-28T04:57:03;1015.05;;;4.13;54.99
54144;BME280;40050;47.324;18.792;2023-02-28T04:59:04;1015.01;;;4.13;54.99
54144;BME280;40050;47.324;18.792;2023-02-28T05:01:06;1015.11;;;4.16;54.81
54144;BME280;40050;47.324;18.792;2023-02-28T05:03:07;1015.11;;;4.15;54.81
54144;BME280;40050;47.324;18.792;2023-02-28T05:05:08;1015.08;;;4.16;54.44
54144;BME280;40050;47.324;18.792;2023-02-28T05:07:09;1015.07;;;4.16;53.96
54144;BME280;40050;47.324;18.792;2023-02-28T05:09:10;1015.04;;;4.18;54.07
54144;BME280;40050;47.324;18.792;2023-02-28T05:11:15;1015.07;;;4.18;54.51
54144;BME280;40050;47.324;18.792;2023-02-28T05:13:17;1015.03;;;4.17;54.58
54144;BME280;40050;47.324;18.792;2023-02-28T05:15:18;1015.02;;;4.16;54.36
54144;BME280;40050;47.324;18.792;2023-02-28T05:17:19;1014.99;;;4.16;54.29
54144;BME280;40050;47.324;18.792;2023-02-28T05:19:19;1015.05;;;4.17;54.25
54144;BME280;40050;47.324;18.792;2023-02-28T05:21:31;1015.09;;;4.18;54.08
54144;BME280;40050;47.324;18.792;2023-02-28T05:23:32;1015.08;;;4.18;54.59
54144;BME280;40050;47.324;18.792;2023-02-28T05:25:33;1015.06;;;4.16;55.25
54144;BME280;40050;47.324;18.792;2023-02-28T05:27:34;1015.08;;;4.17;55.71
54144;BME280;40050;47.324;18.792;2023-02-28T05:29:35;1015.11;;;4.14;55.83
54144;BME280;40050;47.324;18.792;2023-02-28T05:31:36;1015.07;;;4.12;56.11
54144;BME280;40050;47.324;18.792;2023-02-28T05:33:37;1015.17;;;4.10;56.40
54144;BME280;40050;47.324;18.792;2023-02-28T05:35:39;1015.18;;;4.07;56.66
54144;BME280;40050;47.324;18.792;2023-02-28T05:37:40;1015.28;;;4.09;56.69
54144;BME280;40050;47.324;18.792;2023-02-28T05:39:41;1015.28;;;4.10;56.42
54144;BME280;40050;47.324;18.792;2023-02-28T05:41:43;1015.35;;;4.11;56.35
54144;BME280;40050;47.324;18.792;2023-02-28T05:43:44;1015.38;;;4.12;55.78
54144;BME280;40050;47.324;18.792;2023-02-28T05:45:45;1015.37;;;4.08;56.14
54144;BME280;40050;47.324;18.792;2023-02-28T05:47:45;1015.37;;;4.09;56.28
54144;BME280;40050;47.324;18.792;2023-02-28T05:49:46;1015.35;;;4.11;56.07
54144;BME280;40050;47.324;18.792;2023-02-28T05:51:47;1015.38;;;4.12;55.92
54144;BME280;40050;47.324;18.792;2023-02-28T05:53:48;1015.33;;;4.09;56.19
54144;BME280;40050;47.324;18.792;2023-02-28T05:55:49;1015.34;;;4.12;56.29
54144;BME280;40050;47.324;18.792;2023-02-28T05:57:50;1015.41;;;4.13;56.03
54144;BME280;40050;47.324;18.792;2023-02-28T05:59:51;1015.36;;;4.13;55.96
54144;BME280;40050;47.324;18.792;2023-02-28T06:01:53;1015.34;;;4.13;56.02
54144;BME280;40050;47.324;18.792;2023-02-28T06:03:54;1015.35;;;4.14;56.33
54144;BME280;40050;47.324;18.792;2023-02-28T06:05:55;1015.35;;;4.17;57.91
54144;BME280;40050;47.324;18.792;2023-02-28T06:07:56;1015.39;;;4.19;57.33
54144;BME280;40050;47.324;18.792;2023-02-28T06:09:56;1015.42;;;4.21;57.28
54144;BME280;40050;47.324;18.792;2023-02-28T06:11:58;1015.38;;;4.19;57.26
54144;BME280;40050;47.324;18.792;2023-02-28T06:13:59;1015.05;;;3.94;57.46
54144;BME280;40050;47.324;18.792;2023-02-28T06:16:01;1015.41;;;4.21;57.59
54144;BME280;40050;47.324;18.792;2023-02-28T06:18:02;1015.38;;;4.17;57.69
54144;BME280;40050;47.324;18.792;2023-02-28T06:20:03;1015.37;;;4.16;57.86
54144;BME280;40050;47.324;18.792;2023-02-28T06:22:04;1015.45;;;4.20;57.75
54144;BME280;40050;47.324;18.792;2023-02-28T06:24:05;1015.47;;;4.19;57.68
54144;BME280;40050;47.324;18.792;2023-02-28T06:26:06;1015.50;;;4.19;57.52
54144;BME280;40050;47.324;18.792;2023-02-28T06:28:07;1015.48;;;4.21;57.20
54144;BME280;40050;47.324;18.792;2023-02-28T06:30:09;1015.57;;;4.26;56.93
54144;BME280;40050;47.324;18.792;2023-02-28T06:32:10;1015.60;;;4.31;57.02
54144;BME280;40050;47.324;18.792;2023-02-28T06:34:11;1015.57;;;4.31;57.05
54144;BME280;40050;47.324;18.792;2023-02-28T06:36:13;1015.53;;;4.34;57.14
54144;BME280;40050;47.324;18.792;2023-02-28T06:38:14;1015.55;;;4.32;57.08
54144;BME280;40050;47.324;18.792;2023-02-28T06:40:15;1015.59;;;4.35;57.24
54144;BME280;40050;47.324;18.792;2023-02-28T06:42:16;1015.56;;;4.37;56.81
54144;BME280;40050;47.324;18.792;2023-02-28T06:44:17;1015.64;;;4.38;56.59
54144;BME280;40050;47.324;18.792;2023-02-28T06:46:18;1015.60;;;4.38;56.55
54144;BME280;40050;47.324;18.792;2023-02-28T06:48:19;1015.50;;;4.30;56.39
54144;BME280;40050;47.324;18.792;2023-02-28T06:50:20;1015.52;;;4.31;56.63
54144;BME280;40050;47.324;18.792;2023-02-28T06:52:21;1015.26;;;4.19;56.55
54144;BME280;40050;47.324;18.792;2023-02-28T06:54:22;1015.58;;;4.40;56.63
54144;BME280;40050;47.324;18.792;2023-02-28T06:56:23;1015.59;;;4.47;56.81
54144;BME280;40050;47.324;18.792;2023-02-28T06:58:24;1015.63;;;4.53;56.54
54144;BME280;40050;47.324;18.792;2023-02-28T07:00:25;1015.60;;;4.54;56.41
54144;BME280;40050;47.324;18.792;2023-02-28T07:02:26;1015.70;;;4.60;56.03
54144;BME280;40050;47.324;18.792;2023-02-28T07:04:28;1015.71;;;4.62;56.12
54144;BME280;40050;47.324;18.792;2023-02-28T07:06:29;1015.77;;;4.72;55.82
54144;BME280;40050;47.324;18.792;2023-02-28T07:08:29;1015.75;;;4.72;54.81
54144;BME280;40050;47.324;18.792;2023-02-28T07:10:30;1015.36;;;4.54;54.99
54144;BME280;40050;47.324;18.792;2023-02-28T07:12:32;1015.79;;;4.92;54.86
54144;BME280;40050;47.324;18.792;2023-02-28T07:14:33;1015.79;;;4.93;54.12
54144;BME280;40050;47.324;18.792;2023-02-28T07:16:35;1015.75;;;5.02;52.00
54144;BME280;40050;47.324;18.792;2023-02-28T07:18:36;1015.76;;;5.03;51.51
54144;BME280;40050;47.324;18.792;2023-02-28T07:20:37;1015.79;;;5.12;50.66
54144;BME280;40050;47.324;18.792;2023-02-28T07:22:38;1015.81;;;5.20;49.59
54144;BME280;40050;47.324;18.792;2023-02-28T07:24:39;1015.83;;;5.23;49.24
54144;BME280;40050;47.324;18.792;2023-02-28T07:26:39;1015.84;;;5.30;49.99
54144;BME280;40050;47.324;18.792;2023-02-28T07:28:41;1015.90;;;5.33;49.45
54144;BME280;40050;47.324;18.792;2023-02-28T07:30:42;1015.83;;;5.32;48.52
54144;BME280;40050;47.324;18.792;2023-02-28T07:32:43;1015.91;;;5.37;48.79
54144;BME280;40050;47.324;18.792;2023-02-28T07:34:44;1015.87;;;5.43;48.42
54144;BME280;40050;47.324;18.792;2023-02-28T07:36:45;1015.91;;;5.45;48.91
54144;BME280;40050;47.324;18.792;2023-02-28T07:38:46;1015.92;;;5.50;48.39
54144;BME280;40050;47.324;18.792;2023-02-28T07:40:47;1015.97;;;5.59;48.19
54144;BME280;40050;47.324;18.792;2023-02-28T07:42:48;1016.00;;;5.61;47.87
54144;BME280;40050;47.324;18.792;2023-02-28T07:44:49;1016.01;;;5.63;48.25
54144;BME280;40050;47.324;18.792;2023-02-28T07:46:50;1016.02;;;5.65;48.04
54144;BME280;40050;47.324;18.792;2023-02-28T07:48:51;1015.97;;;5.71;47.49
54144;BME280;40050;47.324;18.792;2023-02-28T07:50:56;1015.88;;;5.70;47.38
54144;BME280;40050;47.324;18.792;2023-02-28T07:52:59;1015.98;;;5.85;47.36
54144;BME280;40050;47.324;18.792;2023-02-28T07:55:00;1015.95;;;5.86;47.58
54144;BME280;40050;47.324;18.792;2023-02-28T07:57:01;1015.97;;;5.93;47.52
54144;BME280;40050;47.324;18.792;2023-02-28T07:59:02;1015.92;;;6.01;46.27
54144;BME280;40050;47.324;18.792;2023-02-28T08:01:09;1015.85;;;6.13;46.06
54144;BME280;40050;47.324;18.792;2023-02-28T08:03:11;1015.86;;;6.30;47.07
54144;BME280;40050;47.324;18.792;2023-02-28T08:05:12;1015.81;;;6.44;46.02
54144;BME280;40050;47.324;18.792;2023-02-28T08:07:13;1015.84;;;6.54;46.04
54144;BME280;40050;47.324;18.792;2023-02-28T08:09:14;1015.86;;;6.65;44.71
54144;BME280;40050;47.324;18.792;2023-02-28T08:11:16;1015.79;;;6.72;45.32
54144;BME280;40050;47.324;18.792;2023-02-28T08:13:17;1015.77;;;6.93;44.96
54144;BME280;40050;47.324;18.792;2023-02-28T08:15:18;1015.82;;;7.11;43.59
54144;BME280;40050;47.324;18.792;2023-02-28T08:17:19;1015.87;;;7.26;43.54
54144;BME280;40050;47.324;18.792;2023-02-28T08:19:20;1015.87;;;7.41;42.65
54144;BME280;40050;47.324;18.792;2023-02-28T08:21:21;1015.78;;;7.54;43.28
54144;BME280;40050;47.324;18.792;2023-02-28T08:23:22;1015.89;;;7.82;43.60
54144;BME280;40050;47.324;18.792;2023-02-28T08:25:22;1015.81;;;7.96;42.99
54144;BME280;40050;47.324;18.792;2023-02-28T08:27:23;1015.88;;;8.20;42.38
54144;BME280;40050;47.324;18.792;2023-02-28T08:29:24;1015.84;;;8.30;41.58
54144;BME280;40050;47.324;18.792;2023-02-28T08:31:25;1015.88;;;8.37;41.36
54144;BME280;40050;47.324;18.792;2023-02-28T08:33:26;1015.80;;;8.45;41.03
54144;BME280;40050;47.324;18.792;2023-02-28T08:35:28;1015.85;;;8.59;40.84
54144;BME280;40050;47.324;18.792;2023-02-28T08:37:29;1015.75;;;8.63;40.71
54144;BME280;40050;47.324;18.792;2023-02-28T08:39:30;1015.83;;;8.73;40.46
54144;BME280;40050;47.324;18.792;2023-02-28T08:41:31;1015.82;;;8.77;40.21
54144;BME280;40050;47.324;18.792;2023-02-28T08:43:32;1015.82;;;8.85;40.13
54144;BME280;40050;47.324;18.792;2023-02-28T08:45:33;1015.83;;;9.03;40.55
54144;BME280;40050;47.324;18.792;2023-02-28T08:47:34;1015.83;;;9.21;39.78
54144;BME280;40050;47.324;18.792;2023-02-28T08:49:36;1015.85;;;9.34;39.67
54144;BME280;40050;47.324;18.792;2023-02-28T08:51:38;1015.88;;;9.40;39.21
54144;BME280;40050;47.324;18.792;2023-02-28T08:53:39;1015.93;;;9.44;38.46
54144;BME280;40050;47.324;18.792;2023-02-28T08:55:40;1015.91;;;9.45;37.85
54144;BME280;40050;47.324;18.792;2023-02-28T08:57:41;1015.92;;;9.35;37.76
54144;BME280;40050;47.324;18.792;2023-02-28T08:59:42;1015.91;;;9.30;37.84
54144;BME280;40050;47.324;18.792;2023-02-28T09:01:43;1015.87;;;9.25;38.83
54144;BME280;40050;47.324;18.792;2023-02-28T09:03:44;1015.87;;;9.27;38.57
54144;BME280;40050;47.324;18.792;2023-02-28T09:06:19;1015.81;;;9.19;38.33
54144;BME280;40050;47.324;18.792;2023-02-28T09:08:04;1015.82;;;9.28;38.44
54144;BME280;40050;47.324;18.792;2023-02-28T09:10:05;1015.81;;;9.41;38.79
54144;BME280;40050;47.324;18.792;2023-02-28T09:12:06;1015.73;;;9.52;38.02
54144;BME280;40050;47.324;18.792;2023-02-28T09:14:07;1015.75;;;9.64;37.95
54144;BME280;40050;47.324;18.792;2023-02-28T09:16:10;1015.76;;;9.79;37.66
54144;BME280;40050;47.324;18.792;2023-02-28T09:18:11;1015.76;;;9.95;37.56
54144;BME280;40050;47.324;18.792;2023-02-28T09:20:12;1015.63;;;10.07;37.24
54144;BME280;40050;47.324;18.792;2023-02-28T09:22:13;1015.73;;;10.21;37.51
54144;BME280;40050;47.324;18.792;2023-02-28T09:24:14;1015.76;;;10.40;37.40
54144;BME280;40050;47.324;18.792;2023-02-28T09:26:16;1015.76;;;10.53;37.61
54144;BME280;40050;47.324;18.792;2023-02-28T09:28:18;1015.76;;;10.65;36.94
54144;BME280;40050;47.324;18.792;2023-02-28T09:30:19;1015.80;;;10.64;36.31
54144;BME280;40050;47.324;18.792;2023-02-28T09:32:20;1015.86;;;10.71;36.48
54144;BME280;40050;47.324;18.792;2023-02-28T09:34:21;1015.78;;;10.82;36.49
54144;BME280;40050;47.324;18.792;2023-02-28T09:36:22;1015.77;;;11.01;36.36
54144;BME280;40050;47.324;18.792;2023-02-28T09:38:23;1015.78;;;11.11;36.07
54144;BME280;40050;47.324;18.792;2023-02-28T09:40:24;1015.81;;;11.33;36.06
54144;BME280;40050;47.324;18.792;2023-02-28T09:42:31;1015.76;;;11.35;35.49
54144;BME280;40050;47.324;18.792;2023-02-28T09:44:36;1015.74;;;11.32;35.38
54144;BME280;40050;47.324;18.792;2023-02-28T09:46:42;1015.74;;;11.36;35.54
54144;BME280;40050;47.324;18.792;2023-02-28T09:48:44;1015.75;;;11.48;35.08
54144;BME280;40050;47.324;18.792;2023-02-28T09:50:51;1015.67;;;11.59;35.06
54144;BME280;40050;47.324;18.792;2023-02-28T09:52:53;1015.65;;;11.68;35.18
54144;BME280;40050;47.324;18.792;2023-02-28T09:54:54;1015.61;;;11.76;34.51
54144;BME280;40050;47.324;18.792;2023-02-28T09:57:17;1015.59;;;11.78;34.36
54144;BME280;40050;47.324;18.792;2023-02-28T09:59:14;1015.61;;;11.76;34.34
54144;BME280;40050;47.324;18.792;2023-02-28T10:01:31;1015.67;;;11.87;34.63
54144;BME280;40050;47.324;18.792;2023-02-28T10:03:47;1015.64;;;11.96;34.68
54144;BME280;40050;47.324;18.792;2023-02-28T10:05:56;1015.58;;;12.06;34.48
54144;BME280;40050;47.324;18.792;2023-02-28T10:08:08;1015.53;;;12.10;34.71
54144;BME280;40050;47.324;18.792;2023-02-28T10:10:17;1015.67;;;12.24;34.38
54144;BME280;40050;47.324;18.792;2023-02-28T10:12:20;1015.61;;;12.31;34.08
54144;BME280;40050;47.324;18.792;2023-02-28T10:14:22;1015.52;;;12.30;33.88
54144;BME280;40050;47.324;18.792;2023-02-28T10:16:31;1015.53;;;12.27;33.93
54144;BME280;40050;47.324;18.792;2023-02-28T10:18:39;1015.54;;;12.31;33.31
54144;BME280;40050;47.324;18.792;2023-02-28T10:20:42;1015.50;;;12.39;34.02
54144;BME280;40050;47.324;18.792;2023-02-28T10:25:16;1015.61;;;12.39;33.44
54144;BME280;40050;47.324;18.792;2023-02-28T10:27:19;1015.60;;;12.27;33.39
54144;BME280;40050;47.324;18.792;2023-02-28T10:29:20;1015.41;;;12.05;32.99
54144;BME280;40050;47.324;18.792;2023-02-28T10:31:21;1015.53;;;11.95;33.12
54144;BME280;40050;47.324;18.792;2023-02-28T10:33:28;1015.50;;;11.87;33.49
54144;BME280;40050;47.324;18.792;2023-02-28T10:35:29;1015.49;;;11.83;33.95
54144;BME280;40050;47.324;18.792;2023-02-28T10:37:30;1015.44;;;11.73;34.42
54144;BME280;40050;47.324;18.792;2023-02-28T10:39:41;1015.44;;;11.65;34.42
54144;BME280;40050;47.324;18.792;2023-02-28T10:41:42;1015.43;;;11.41;34.74
54144;BME280;40050;47.324;18.792;2023-02-28T10:43:43;1015.36;;;11.25;35.05
54144;BME280;40050;47.324;18.792;2023-02-28T10:45:55;1015.41;;;11.29;35.00
54144;BME280;40050;47.324;18.792;2023-02-28T10:48:10;1015.40;;;11.28;35.56
54144;BME280;40050;47.324;18.792;2023-02-28T10:52:39;1015.32;;;11.36;35.69
54144;BME280;40050;47.324;18.792;2023-02-28T10:54:40;1015.36;;;11.52;35.08
54144;BME280;40050;47.324;18.792;2023-02-28T10:56:41;1015.32;;;11.21;35.58
54144;BME280;40050;47.324;18.792;2023-02-28T10:58:55;1015.34;;;11.38;35.19
54144;BME280;40050;47.324;18.792;2023-02-28T11:00:57;1015.26;;;11.33;34.90
54144;BME280;40050;47.324;18.792;2023-02-28T11:02:59;1015.29;;;11.35;35.23
54144;BME280;40050;47.324;18.792;2023-02-28T11:04:59;1015.27;;;11.32;35.15
54144;BME280;40050;47.324;18.792;2023-02-28T11:07:16;1015.23;;;11.40;35.40
54144;BME280;40050;47.324;18.792;2023-02-28T11:09:22;1015.26;;;11.37;35.60
54144;BME280;40050;47.324;18.792;2023-02-28T11:11:26;1015.28;;;11.41;35.73
54144;BME280;40050;47.324;18.792;2023-02-28T11:13:29;1015.29;;;11.45;35.44
54144;BME280;40050;47.324;18.792;2023-02-28T11:15:33;1015.28;;;11.45;35.17
54144;BME280;40050;47.324;18.792;2023-02-28T11:17:34;1015.26;;;11.54;34.75
54144;BME280;40050;47.324;18.792;2023-02-28T11:19:38;1015.25;;;11.54;34.77
54144;BME280;40050;47.324;18.792;2023-02-28T11:21:40;1014.88;;;11.16;34.69
54144;BME280;40050;47.324;18.792;2023-02-28T11:25:49;1015.20;;;11.27;35.22
54144;BME280;40050;47.324;18.792;2023-02-28T11:27:53;1015.20;;;11.26;35.70
54144;BME280;40050;47.324;18.792;2023-02-28T11:29:54;1015.17;;;11.23;35.52